createdAt,value
2019-04-28T00:02:10.900Z,3.63
2019-04-28T00:04:38.049Z,3.60
2019-04-28T00:07:05.395Z,3.80
2019-04-28T00:09:32.754Z,3.90
2019-04-28T00:12:01.718Z,3.47
2019-04-28T00:14:29.308Z,3.73
2019-04-28T00:16:56.778Z,4.67
2019-04-28T00:19:25.428Z,3.33
2019-04-28T00:22:16.825Z,3.90
2019-04-28T00:24:52.326Z,3.60
2019-04-28T00:27:21.504Z,3.80
2019-04-28T00:29:49.080Z,3.60
2019-04-28T00:32:16.555Z,3.33
2019-04-28T00:34:43.902Z,3.57
2019-04-28T00:37:17.967Z,3.43
2019-04-28T00:39:45.414Z,3.77
2019-04-28T00:42:12.750Z,3.50
2019-04-28T00:44:41.737Z,4.30
2019-04-28T00:47:11.089Z,3.87
2019-04-28T00:49:47.139Z,3.37
2019-04-28T00:52:18.607Z,3.37
2019-04-28T00:54:46.816Z,3.20
2019-04-28T00:57:14.311Z,3.47
2019-04-28T00:59:54.018Z,4.10
2019-04-28T01:02:41.098Z,3.50
2019-04-28T01:05:08.767Z,3.87
2019-04-28T01:07:36.290Z,4.23
2019-04-28T01:10:04.909Z,3.63
2019-04-28T01:12:32.348Z,3.70
2019-04-28T01:15:04.034Z,4.50
2019-04-28T01:17:40.621Z,4.07
2019-04-28T01:20:09.877Z,3.87
2019-04-28T01:22:37.264Z,3.40
2019-04-28T01:25:04.753Z,3.70
2019-04-28T01:27:51.653Z,3.40
2019-04-28T01:30:29.951Z,3.60
2019-04-28T01:33:02.678Z,3.63
2019-04-28T01:35:30.164Z,3.47
2019-04-28T01:37:57.580Z,3.10
2019-04-28T01:40:24.896Z,3.33
2019-04-28T01:42:52.344Z,3.73
2019-04-28T01:45:20.549Z,3.47
2019-04-28T01:47:48.014Z,4.40
2019-04-28T01:50:15.353Z,3.30
2019-04-28T01:52:42.610Z,3.53
2019-04-28T01:55:10.231Z,3.80
2019-04-28T01:57:37.613Z,3.40
2019-04-28T02:00:20.048Z,4.20
2019-04-28T02:02:36.234Z,3.37
2019-04-28T02:05:04.362Z,3.60
2019-04-28T02:07:32.951Z,3.23
2019-04-28T02:10:00.818Z,4.23
2019-04-28T02:12:30.220Z,3.07
2019-04-28T02:14:57.308Z,3.30
2019-04-28T02:17:24.661Z,3.77
2019-04-28T02:19:52.285Z,3.03
2019-04-28T02:22:28.018Z,2.87
2019-04-28T02:24:55.339Z,4.47
2019-04-28T02:27:22.696Z,3.67
2019-04-28T02:29:50.073Z,4.03
2019-04-28T02:32:21.167Z,3.67
2019-04-28T02:34:50.556Z,3.80
2019-04-28T02:37:20.231Z,3.70
2019-04-28T02:39:46.768Z,3.47
2019-04-28T02:42:14.209Z,4.07
2019-04-28T02:44:41.583Z,4.47
2019-04-28T02:47:10.731Z,4.57
2019-04-28T02:50:00.831Z,3.73
2019-04-28T02:52:46.362Z,3.70
2019-04-28T02:55:13.713Z,3.70
2019-04-28T02:57:41.099Z,3.40
2019-04-28T03:00:10.371Z,4.60
2019-04-28T03:02:37.929Z,5.10
2019-04-28T03:05:05.833Z,4.10
2019-04-28T03:07:33.179Z,4.87
2019-04-28T03:10:03.480Z,4.77
2019-04-28T03:12:31.395Z,4.23
2019-04-28T03:15:00.563Z,3.73
2019-04-28T03:17:30.998Z,3.80
2019-04-28T03:20:00.716Z,3.17
2019-04-28T03:22:26.994Z,4.57
2019-04-28T03:24:56.203Z,3.83
2019-04-28T03:27:51.719Z,3.80
2019-04-28T03:30:36.841Z,3.30
2019-04-28T03:33:11.993Z,3.80
2019-04-28T03:35:34.357Z,3.53
2019-04-28T03:38:01.743Z,3.73
2019-04-28T03:40:31.013Z,3.47
2019-04-28T03:43:00.313Z,3.53
2019-04-28T03:45:33.158Z,3.60
2019-04-28T03:48:00.494Z,3.27
2019-04-28T03:50:28.006Z,3.67
2019-04-28T03:52:55.411Z,3.63
2019-04-28T03:55:22.815Z,2.90
2019-04-28T03:57:51.054Z,3.33
2019-04-28T04:00:18.806Z,3.37
2019-04-28T04:02:46.145Z,4.33
2019-04-28T04:05:13.621Z,3.20
2019-04-28T04:07:43.226Z,3.50
2019-04-28T04:10:30.412Z,3.30
2019-04-28T04:13:11.135Z,3.13
2019-04-28T04:15:53.775Z,3.23
2019-04-28T04:18:26.225Z,3.33
2019-04-28T04:20:53.566Z,3.30
2019-04-28T04:23:23.168Z,3.83
2019-04-28T04:25:51.876Z,3.40
2019-04-28T04:28:20.522Z,4.47
2019-04-28T04:30:50.852Z,3.33
2019-04-28T04:33:17.497Z,3.30
2019-04-28T04:35:44.943Z,3.50
2019-04-28T04:38:12.341Z,3.40
2019-04-28T04:40:41.316Z,3.33
2019-04-28T04:43:11.172Z,3.23
2019-04-28T04:45:40.443Z,3.10
2019-04-28T04:48:07.501Z,4.20
2019-04-28T04:50:34.939Z,4.07
2019-04-28T04:53:02.843Z,4.10
2019-04-28T04:55:30.858Z,3.17
2019-04-28T04:58:00.583Z,3.57
2019-04-28T05:00:52.948Z,3.60
2019-04-28T05:03:23.980Z,3.00
2019-04-28T05:05:51.337Z,2.90
2019-04-28T05:08:20.318Z,3.40
2019-04-28T05:10:47.784Z,3.60
2019-04-28T05:13:15.210Z,3.60
2019-04-28T05:15:42.504Z,3.67
2019-04-28T05:18:10.203Z,3.30
2019-04-28T05:20:37.715Z,3.87
2019-04-28T05:23:14.085Z,2.87
2019-04-28T05:25:42.456Z,3.77
2019-04-28T05:28:10.426Z,3.70
2019-04-28T05:30:39.648Z,3.23
2019-04-28T05:33:07.180Z,3.80
2019-04-28T05:35:35.799Z,3.17
2019-04-28T05:38:03.276Z,3.50
2019-04-28T05:40:30.658Z,3.27
2019-04-28T05:42:58.055Z,3.03
2019-04-28T05:45:26.940Z,3.23
2019-04-28T05:47:55.215Z,3.33
2019-04-28T05:50:29.682Z,3.80
2019-04-28T05:53:25.545Z,3.37
2019-04-28T05:56:00.789Z,2.90
2019-04-28T05:58:42.356Z,3.33
2019-04-28T06:01:43.230Z,2.80
2019-04-28T06:04:11.284Z,2.83
2019-04-28T06:06:40.798Z,3.03
2019-04-28T06:09:25.847Z,3.17
2019-04-28T06:11:54.637Z,2.73
2019-04-28T06:14:22.138Z,3.13
2019-04-28T06:16:50.684Z,3.63
2019-04-28T06:19:20.093Z,3.70
2019-04-28T06:21:47.516Z,3.10
2019-04-28T06:24:15.118Z,3.63
2019-04-28T06:26:42.556Z,3.60
2019-04-28T06:29:09.884Z,3.40
2019-04-28T06:31:37.400Z,3.10
2019-04-28T06:34:04.839Z,3.30
2019-04-28T06:36:32.182Z,3.10
2019-04-28T06:38:59.549Z,3.40
2019-04-28T06:41:26.984Z,3.67
2019-04-28T06:43:54.341Z,3.30
2019-04-28T06:46:21.782Z,3.17
2019-04-28T06:48:49.144Z,2.97
2019-04-28T06:51:16.492Z,2.60
2019-04-28T06:53:43.845Z,2.87
2019-04-28T06:56:11.184Z,3.07
2019-04-28T06:58:38.656Z,2.87
2019-04-28T07:01:06.098Z,2.93
2019-04-28T07:03:33.550Z,2.30
2019-04-28T07:06:00.923Z,2.93
2019-04-28T07:08:28.379Z,2.20
2019-04-28T07:10:55.735Z,2.53
2019-04-28T07:13:23.306Z,2.67
2019-04-28T07:15:50.872Z,2.50
2019-04-28T07:18:18.420Z,2.50
2019-04-28T07:20:55.112Z,2.53
2019-04-28T07:23:22.564Z,2.40
2019-04-28T07:25:50.021Z,2.60
2019-04-28T07:28:17.471Z,3.33
2019-04-28T07:30:44.869Z,3.10
2019-04-28T07:33:12.212Z,2.00
2019-04-28T07:35:39.594Z,2.27
2019-04-28T07:38:06.952Z,2.43
2019-04-28T07:40:34.298Z,2.60
2019-04-28T07:43:01.835Z,2.93
2019-04-28T07:45:29.219Z,3.17
2019-04-28T07:47:57.032Z,2.80
2019-04-28T07:50:24.361Z,2.37
2019-04-28T07:52:57.354Z,2.00
2019-04-28T07:55:24.821Z,2.50
2019-04-28T07:57:52.234Z,2.30
2019-04-28T08:00:26.037Z,2.67
2019-04-28T08:02:53.452Z,2.13
2019-04-28T08:05:20.867Z,2.73
2019-04-28T08:07:48.230Z,2.40
2019-04-28T08:10:15.654Z,2.30
2019-04-28T08:12:42.993Z,2.33
2019-04-28T08:15:21.903Z,1.93
2019-04-28T08:17:52.141Z,1.53
2019-04-28T08:20:20.396Z,1.90
2019-04-28T08:22:47.773Z,2.00
2019-04-28T08:25:15.199Z,2.23
2019-04-28T08:27:42.502Z,2.23
2019-04-28T08:30:10.009Z,1.93
2019-04-28T08:32:43.919Z,1.80
2019-04-28T08:35:11.555Z,1.80
2019-04-28T08:37:38.985Z,1.83
2019-04-28T08:40:06.579Z,1.63
2019-04-28T08:42:34.005Z,2.50
2019-04-28T08:45:01.373Z,1.90
2019-04-28T08:47:28.709Z,1.93
2019-04-28T08:49:56.151Z,2.00
2019-04-28T08:52:23.477Z,2.10
2019-04-28T08:54:50.873Z,1.90
2019-04-28T08:57:18.304Z,2.03
2019-04-28T08:59:45.515Z,1.90
2019-04-28T09:02:12.857Z,1.77
2019-04-28T09:04:40.169Z,2.00
2019-04-28T09:07:07.533Z,2.30
2019-04-28T09:09:34.846Z,1.77
2019-04-28T09:12:02.185Z,1.70
2019-04-28T09:14:29.557Z,2.00
2019-04-28T09:16:57.119Z,1.80
2019-04-28T09:19:24.489Z,1.70
2019-04-28T09:21:51.837Z,1.60
2019-04-28T09:24:19.337Z,1.37
2019-04-28T09:26:46.715Z,1.37
2019-04-28T09:29:14.115Z,1.60
2019-04-28T09:31:41.487Z,1.60
2019-04-28T09:34:08.823Z,2.27
2019-04-28T09:36:36.157Z,1.63
2019-04-28T09:39:05.583Z,1.83
2019-04-28T09:41:33.535Z,1.77
2019-04-28T09:44:10.352Z,1.53
2019-04-28T09:46:39.335Z,1.40
2019-04-28T09:49:06.679Z,1.57
2019-04-28T09:51:34.071Z,1.67
2019-04-28T09:54:01.483Z,1.40
2019-04-28T09:56:28.892Z,1.70
2019-04-28T09:58:56.345Z,1.40
2019-04-28T10:01:23.803Z,1.53
2019-04-28T10:03:51.191Z,1.80
2019-04-28T10:06:18.596Z,1.33
2019-04-28T10:08:46.031Z,1.30
2019-04-28T10:11:13.301Z,1.50
2019-04-28T10:13:40.672Z,1.30
2019-04-28T10:16:07.911Z,1.20
2019-04-28T10:18:35.224Z,1.03
2019-04-28T10:21:02.567Z,1.13
2019-04-28T10:23:29.944Z,1.30
2019-04-28T10:25:57.299Z,0.90
2019-04-28T10:28:24.653Z,0.90
2019-04-28T10:30:52.159Z,0.90
2019-04-28T10:33:21.359Z,0.70
2019-04-28T10:35:48.691Z,0.63
2019-04-28T10:38:16.076Z,0.80
2019-04-28T10:41:03.256Z,1.07
2019-04-28T10:43:31.057Z,0.93
2019-04-28T10:45:58.589Z,0.80
2019-04-28T10:48:26.048Z,0.80
2019-04-28T10:50:53.449Z,0.80
2019-04-28T10:53:20.822Z,0.70
2019-04-28T10:55:48.291Z,0.67
2019-04-28T10:58:15.544Z,0.80
2019-04-28T11:00:42.916Z,0.60
2019-04-28T11:03:10.402Z,3.50
2019-04-28T11:05:41.119Z,1.00
2019-04-28T11:08:15.976Z,1.33
2019-04-28T11:10:43.358Z,0.53
2019-04-28T11:13:10.827Z,0.80
2019-04-28T11:15:38.221Z,1.00
2019-04-28T11:18:06.554Z,1.00
2019-04-28T11:20:33.927Z,1.10
2019-04-28T11:23:01.344Z,0.83
2019-04-28T11:25:28.981Z,1.00
2019-04-28T11:27:56.437Z,0.90
2019-04-28T11:30:24.015Z,0.63
2019-04-28T11:33:16.735Z,0.77
2019-04-28T11:35:44.193Z,0.50
2019-04-28T11:38:11.559Z,0.90
2019-04-28T11:40:39.086Z,0.63
2019-04-28T11:43:06.720Z,0.70
2019-04-28T11:45:34.120Z,0.83
2019-04-28T11:48:01.540Z,0.80
2019-04-28T11:50:29.159Z,0.83
2019-04-28T11:52:56.924Z,1.03
2019-04-28T11:55:24.289Z,0.77
2019-04-28T11:57:51.761Z,0.60
2019-04-28T12:00:30.985Z,0.70
2019-04-28T12:02:58.573Z,0.40
2019-04-28T12:05:34.819Z,0.80
2019-04-28T12:07:59.849Z,0.43
2019-04-28T12:10:31.647Z,0.43
2019-04-28T12:13:14.896Z,1.03
2019-04-28T12:16:00.317Z,1.00
2019-04-28T12:18:50.063Z,1.00
2019-04-28T12:21:17.605Z,0.27
2019-04-28T12:23:44.991Z,0.30
2019-04-28T12:26:12.491Z,0.50
2019-04-28T12:28:39.886Z,0.30
2019-04-28T12:31:07.264Z,0.60
2019-04-28T12:33:34.527Z,0.70
2019-04-28T12:36:03.896Z,0.70
2019-04-28T12:38:31.214Z,0.67
2019-04-28T12:40:58.622Z,1.20
2019-04-28T12:43:25.975Z,0.70
2019-04-28T12:45:53.335Z,0.77
2019-04-28T12:48:20.697Z,0.83
2019-04-28T12:50:50.351Z,0.77
2019-04-28T12:53:17.793Z,0.90
2019-04-28T12:55:45.192Z,1.20
2019-04-28T12:58:12.575Z,1.40
2019-04-28T13:00:51.764Z,1.50
2019-04-28T13:03:44.393Z,1.70
2019-04-28T13:06:13.982Z,1.07
2019-04-28T13:08:41.375Z,1.50
2019-04-28T13:11:08.796Z,1.50
2019-04-28T13:13:36.107Z,1.70
2019-04-28T13:16:03.673Z,1.50
2019-04-28T13:18:30.995Z,1.90
2019-04-28T13:20:59.110Z,1.70
2019-04-28T13:23:26.968Z,1.40
2019-04-28T13:25:54.897Z,1.57
2019-04-28T13:28:22.301Z,1.47
2019-04-28T13:30:49.836Z,1.40
2019-04-28T13:33:17.289Z,0.87
2019-04-28T13:35:44.667Z,1.23
2019-04-28T13:38:12.026Z,1.00
2019-04-28T13:40:40.377Z,0.70
2019-04-28T13:43:07.724Z,0.87
2019-04-28T13:45:35.170Z,1.20
2019-04-28T13:48:02.565Z,2.03
2019-04-28T13:50:35.417Z,2.80
2019-04-28T13:53:03.022Z,2.20
2019-04-28T13:56:05.180Z,1.13
2019-04-28T13:58:36.316Z,0.60
2019-04-28T14:01:28.018Z,0.40
2019-04-28T14:04:20.795Z,2.03
2019-04-28T14:06:50.944Z,2.60
2019-04-28T14:09:18.338Z,1.17
2019-04-28T14:11:45.855Z,1.37
2019-04-28T14:14:13.321Z,1.20
2019-04-28T14:16:40.705Z,0.90
2019-04-28T14:19:08.043Z,1.10
2019-04-28T14:21:35.447Z,1.13
2019-04-28T14:24:03.041Z,1.13
2019-04-28T14:26:30.462Z,2.50
2019-04-28T14:28:57.833Z,1.10
2019-04-28T14:31:25.205Z,0.83
2019-04-28T14:33:52.543Z,1.20
2019-04-28T14:36:19.967Z,1.13
2019-04-28T14:38:47.290Z,1.03
2019-04-28T14:41:14.682Z,1.00
2019-04-28T14:43:41.970Z,0.80
2019-04-28T14:46:09.466Z,1.03
2019-04-28T14:48:36.950Z,1.57
2019-04-28T14:51:04.297Z,0.90
2019-04-28T14:53:31.736Z,0.90
2019-04-28T14:55:59.156Z,1.50
2019-04-28T14:58:26.643Z,1.27
2019-04-28T15:00:58.979Z,1.00
2019-04-28T15:03:27.836Z,0.90
2019-04-28T15:06:11.011Z,1.03
2019-04-28T15:08:46.798Z,0.80
2019-04-28T15:11:32.409Z,1.03
2019-04-28T15:13:59.778Z,1.00
2019-04-28T15:16:27.146Z,0.90
2019-04-28T15:18:54.589Z,1.00
2019-04-28T15:21:22.049Z,0.80
2019-04-28T15:23:49.439Z,1.03
2019-04-28T15:26:16.824Z,0.90
2019-04-28T15:28:44.171Z,1.07
2019-04-28T15:31:11.537Z,0.70
2019-04-28T15:33:38.888Z,0.60
2019-04-28T15:36:06.299Z,0.60
2019-04-28T15:38:33.566Z,0.30
2019-04-28T15:41:00.909Z,1.20
2019-04-28T15:43:28.405Z,1.70
2019-04-28T15:45:55.800Z,0.80
2019-04-28T15:48:23.229Z,0.70
2019-04-28T15:50:50.604Z,2.00
2019-04-28T15:53:17.975Z,0.90
2019-04-28T15:55:52.295Z,0.50
2019-04-28T15:58:38.208Z,0.40
2019-04-28T16:01:05.638Z,0.40
2019-04-28T16:03:33.069Z,0.47
2019-04-28T16:06:00.450Z,0.50
2019-04-28T16:08:27.927Z,0.90
2019-04-28T16:10:55.472Z,1.50
2019-04-28T16:13:24.776Z,2.03
2019-04-28T16:15:52.146Z,1.20
2019-04-28T16:18:19.557Z,1.10
2019-04-28T16:20:47.006Z,0.93
2019-04-28T16:23:14.383Z,0.63
2019-04-28T16:25:41.755Z,0.87
2019-04-28T16:28:09.111Z,1.03
2019-04-28T16:30:36.490Z,0.70
2019-04-28T16:33:03.951Z,0.80
2019-04-28T16:35:31.275Z,0.93
2019-04-28T16:37:58.591Z,1.47
2019-04-28T16:40:33.009Z,5.43
2019-04-28T16:43:06.329Z,1.10
2019-04-28T16:45:33.670Z,0.80
2019-04-28T16:48:01.003Z,0.77
2019-04-28T16:50:28.395Z,0.90
2019-04-28T16:52:55.711Z,0.60
2019-04-28T16:55:27.529Z,0.57
2019-04-28T16:58:17.162Z,0.60
2019-04-28T17:01:12.623Z,0.60
2019-04-28T17:03:39.953Z,0.30
2019-04-28T17:06:07.295Z,0.60
2019-04-28T17:08:34.547Z,0.40
2019-04-28T17:11:02.191Z,0.33
2019-04-28T17:13:29.581Z,0.40
2019-04-28T17:15:56.905Z,0.60
2019-04-28T17:18:24.269Z,0.93
2019-04-28T17:20:54.353Z,1.20
2019-04-28T17:23:20.713Z,1.50
2019-04-28T17:25:48.075Z,1.10
2019-04-28T17:28:15.509Z,1.00
2019-04-28T17:30:42.769Z,1.57
2019-04-28T17:33:10.002Z,1.20
2019-04-28T17:35:37.441Z,0.80
2019-04-28T17:38:06.857Z,0.80
2019-04-28T17:40:34.317Z,0.60
2019-04-28T17:43:01.657Z,0.90
2019-04-28T17:45:29.084Z,0.80
2019-04-28T17:47:59.025Z,0.90
2019-04-28T17:50:26.973Z,0.90
2019-04-28T17:52:54.338Z,1.20
2019-04-28T17:55:21.711Z,3.00
2019-04-28T17:57:49.254Z,5.07
2019-04-28T18:00:27.695Z,2.43
2019-04-28T18:03:09.998Z,1.10
2019-04-28T18:05:41.729Z,0.50
2019-04-28T18:08:20.470Z,0.60
2019-04-28T18:10:38.363Z,0.87
2019-04-28T18:13:05.943Z,0.60
2019-04-28T18:15:51.274Z,0.60
2019-04-28T18:18:37.056Z,0.70
2019-04-28T18:21:04.425Z,0.60
2019-04-28T18:23:32.139Z,0.53
2019-04-28T18:25:59.954Z,0.60
2019-04-28T18:28:27.830Z,0.70
2019-04-28T18:31:15.344Z,0.83
2019-04-28T18:33:51.025Z,1.00
2019-04-28T18:36:25.099Z,1.37
2019-04-28T18:39:01.023Z,2.17
2019-04-28T18:41:59.846Z,1.23
2019-04-28T18:44:27.247Z,1.27
2019-04-28T18:46:54.690Z,1.23
2019-04-28T18:49:22.040Z,1.13
2019-04-28T18:51:49.367Z,1.20
2019-04-28T18:54:16.724Z,1.10
2019-04-28T18:56:44.112Z,0.80
2019-04-28T18:59:11.616Z,1.60
2019-04-28T19:01:47.246Z,1.47
2019-04-28T19:04:14.657Z,1.10
2019-04-28T19:06:42.001Z,1.10
2019-04-28T19:09:37.662Z,1.30
2019-04-28T19:12:12.288Z,1.70
2019-04-28T19:14:44.676Z,1.10
2019-04-28T19:17:24.791Z,1.40
2019-04-28T19:19:52.255Z,1.80
2019-04-28T19:22:19.554Z,1.87
2019-04-28T19:24:46.798Z,2.10
2019-04-28T19:27:14.154Z,1.90
2019-04-28T19:29:41.528Z,1.70
2019-04-28T19:32:08.923Z,1.70
2019-04-28T19:34:36.294Z,1.53
2019-04-28T19:37:03.766Z,2.30
2019-04-28T19:39:31.057Z,2.53
2019-04-28T19:41:58.440Z,3.47
2019-04-28T19:44:25.770Z,6.80
2019-04-28T19:46:53.134Z,9.27
2019-04-28T19:49:20.542Z,8.63
2019-04-28T19:51:47.932Z,13.23
2019-04-28T19:54:17.290Z,14.20
2019-04-28T19:56:57.332Z,13.40
2019-04-28T19:59:30.941Z,14.40
2019-04-28T20:01:58.288Z,8.57
2019-04-28T20:04:25.681Z,5.93
2019-04-28T20:06:52.971Z,4.83
2019-04-28T20:09:20.292Z,5.10
2019-04-28T20:11:47.645Z,4.90
2019-04-28T20:14:15.028Z,3.40
2019-04-28T20:16:42.366Z,2.90
2019-04-28T20:19:09.766Z,3.23
2019-04-28T20:21:37.155Z,2.80
2019-04-28T20:24:04.597Z,2.57
2019-04-28T20:26:31.991Z,1.77
2019-04-28T20:28:59.396Z,2.10
2019-04-28T20:31:26.637Z,2.23
2019-04-28T20:33:53.866Z,2.17
2019-04-28T20:36:32.975Z,2.10
2019-04-28T20:39:04.072Z,2.33
2019-04-28T20:41:31.401Z,2.47
2019-04-28T20:43:59.238Z,2.33
2019-04-28T20:46:26.479Z,2.70
2019-04-28T20:48:53.813Z,2.70
2019-04-28T20:51:21.176Z,2.80
2019-04-28T20:53:48.524Z,3.43
2019-04-28T20:56:16.172Z,4.93
2019-04-28T20:58:43.399Z,3.50
2019-04-28T21:01:10.723Z,3.10
2019-04-28T21:03:38.653Z,2.63
2019-04-28T21:06:06.154Z,3.20
2019-04-28T21:08:33.417Z,3.00
2019-04-28T21:11:00.767Z,3.30
2019-04-28T21:13:28.187Z,3.30
2019-04-28T21:15:55.569Z,2.90
2019-04-28T21:18:23.040Z,2.80
2019-04-28T21:20:50.267Z,3.07
2019-04-28T21:23:17.675Z,2.87
2019-04-28T21:25:45.013Z,3.23
2019-04-28T21:28:12.363Z,3.07
2019-04-28T21:30:39.667Z,3.10
2019-04-28T21:33:06.969Z,2.83
2019-04-28T21:35:34.355Z,2.80
2019-04-28T21:38:01.673Z,2.83
2019-04-28T21:40:29.256Z,2.20
2019-04-28T21:43:17.982Z,2.50
2019-04-28T21:46:16.936Z,2.63
2019-04-28T21:48:49.964Z,2.60
2019-04-28T21:51:17.262Z,3.00
2019-04-28T21:53:44.617Z,2.90
2019-04-28T21:56:11.877Z,2.63
2019-04-28T21:58:39.278Z,2.93
2019-04-28T22:01:06.936Z,2.50
2019-04-28T22:03:34.334Z,2.50
2019-04-28T22:06:01.652Z,2.50
2019-04-28T22:08:28.955Z,2.67
2019-04-28T22:10:56.304Z,2.37
2019-04-28T22:13:23.550Z,2.77
2019-04-28T22:15:50.960Z,2.30
2019-04-28T22:18:18.258Z,2.47
2019-04-28T22:20:45.592Z,2.27
2019-04-28T22:23:18.813Z,2.35
2019-04-28T22:25:46.404Z,2.20
2019-04-28T22:28:13.769Z,2.60
2019-04-28T22:30:41.093Z,2.65
2019-04-28T22:33:08.453Z,2.90
2019-04-28T22:35:35.812Z,2.67
2019-04-28T22:38:03.143Z,2.60
2019-04-28T22:40:30.404Z,2.47
2019-04-28T22:42:57.829Z,2.37
2019-04-28T22:45:25.171Z,2.63
2019-04-28T22:47:52.516Z,2.83
2019-04-28T22:50:48.625Z,2.60
2019-04-28T22:53:18.296Z,2.70
2019-04-28T22:55:51.236Z,2.40
2019-04-28T22:58:43.333Z,2.20
2019-04-28T23:01:15.253Z,2.60
2019-04-28T23:03:53.401Z,2.20
2019-04-28T23:06:20.845Z,2.77
2019-04-28T23:08:48.183Z,2.65
2019-04-28T23:11:15.551Z,2.55
2019-04-28T23:13:43.286Z,2.77
2019-04-28T23:16:10.678Z,2.87
2019-04-28T23:18:37.985Z,3.00
2019-04-28T23:21:12.973Z,2.47
2019-04-28T23:23:40.325Z,2.50
2019-04-28T23:26:07.732Z,2.72
2019-04-28T23:28:35.113Z,2.47
2019-04-28T23:31:02.479Z,2.77
2019-04-28T23:33:29.832Z,3.00
2019-04-28T23:35:57.257Z,3.10
2019-04-28T23:38:24.589Z,2.80
2019-04-28T23:41:17.356Z,3.50
2019-04-28T23:43:44.676Z,3.10
2019-04-28T23:46:12.054Z,3.00
2019-04-28T23:48:39.392Z,3.08
2019-04-28T23:51:19.892Z,3.70
2019-04-28T23:54:01.870Z,3.00
2019-04-28T23:56:29.132Z,3.35
2019-04-28T23:58:56.512Z,3.25
